createdAt,value
2019-03-09T00:08:26.733Z,9.20
2019-03-09T00:10:55.623Z,9.00
2019-03-09T00:13:24.513Z,9.00
2019-03-09T00:15:53.407Z,9.00
2019-03-09T00:18:22.394Z,9.00
2019-03-09T00:20:51.493Z,9.00
2019-03-09T00:23:39.021Z,9.10
2019-03-09T00:26:18.660Z,9.00
2019-03-09T00:28:55.132Z,9.00
2019-03-09T00:31:44.814Z,9.00
2019-03-09T00:34:13.906Z,8.90
2019-03-09T00:36:42.799Z,8.90
2019-03-09T00:39:12.611Z,8.80
2019-03-09T00:41:41.612Z,8.70
2019-03-09T00:44:10.493Z,8.60
2019-03-09T00:46:39.385Z,8.40
2019-03-09T00:49:08.377Z,8.40
2019-03-09T00:51:37.269Z,8.30
2019-03-09T00:54:06.262Z,8.20
2019-03-09T00:56:35.255Z,8.10
2019-03-09T00:59:04.147Z,8.10
2019-03-09T01:01:33.037Z,8.00
2019-03-09T07:24:29.525Z,8.10
2019-03-09T07:26:58.416Z,8.90
2019-03-09T07:29:27.299Z,8.80
2019-03-09T07:31:56.197Z,8.90
2019-03-09T07:34:27.803Z,8.90
2019-03-09T07:36:56.744Z,8.90
2019-03-09T07:39:25.736Z,8.80
2019-03-09T07:41:54.627Z,8.90
2019-03-09T07:44:24.427Z,8.90
2019-03-09T07:46:54.098Z,8.90
2019-03-09T07:49:24.468Z,9.00
2019-03-09T07:51:53.776Z,9.00
2019-03-09T07:54:23.930Z,9.10
2019-03-09T07:56:53.606Z,9.20
2019-03-09T07:59:22.805Z,9.20
2019-03-09T08:01:51.693Z,9.30
2019-03-09T08:04:20.687Z,9.40
2019-03-09T08:06:49.577Z,9.40
2019-03-09T08:09:18.468Z,9.50
2019-03-09T08:11:47.461Z,9.70
2019-03-09T08:14:16.352Z,10.10
2019-03-09T08:16:48.125Z,10.20
2019-03-09T08:19:17.103Z,10.40
2019-03-09T08:21:45.994Z,10.60
2019-03-09T08:26:43.377Z,11.00
2019-03-09T08:29:12.363Z,12.10
2019-03-09T08:31:41.511Z,13.10
2019-03-09T08:34:10.668Z,14.60
2019-03-09T08:41:36.813Z,15.70
2019-03-09T08:44:05.705Z,16.30
2019-03-09T08:46:35.414Z,16.10
2019-03-09T08:49:04.432Z,16.10
2019-03-09T08:51:33.812Z,16.00
2019-03-09T08:54:02.873Z,15.80
2019-03-09T08:56:33.536Z,15.60
2019-03-09T09:09:16.538Z,15.50
2019-03-09T09:11:45.518Z,14.20
2019-03-09T09:14:14.410Z,14.00
2019-03-09T09:16:43.228Z,13.90
2019-03-09T09:19:12.191Z,13.70
2019-03-09T09:21:41.082Z,13.60
2019-03-09T09:24:09.887Z,13.30
2019-03-09T09:58:49.818Z,13.20
2019-03-09T10:01:18.667Z,14.10
2019-03-09T10:03:47.531Z,14.20
2019-03-09T10:06:16.366Z,14.30
2019-03-09T10:08:45.203Z,14.40
2019-03-09T10:11:14.105Z,14.50
2019-03-09T10:13:43.078Z,14.60
2019-03-09T10:16:11.970Z,14.80
2019-03-09T10:21:09.442Z,15.00
2019-03-09T10:23:38.335Z,15.20
2019-03-09T10:26:07.232Z,15.20
2019-03-09T10:28:36.116Z,15.10
2019-03-09T10:31:05.005Z,14.90
2019-03-09T10:33:33.896Z,14.80
2019-03-09T10:36:02.768Z,14.80
2019-03-09T10:38:31.679Z,15.00
2019-03-09T10:41:00.564Z,15.00
2019-03-09T10:43:29.463Z,14.90
2019-03-09T10:45:58.352Z,14.90
2019-03-09T10:48:27.242Z,14.80
2019-03-09T10:50:56.234Z,14.90
2019-03-09T10:53:25.163Z,14.80
2019-03-09T10:55:54.017Z,14.80
2019-03-09T10:58:22.907Z,14.80
2019-03-09T11:00:51.798Z,14.90
2019-03-09T11:03:20.687Z,14.80
2019-03-09T11:05:49.569Z,14.90
2019-03-09T11:08:18.470Z,14.90
2019-03-09T11:10:47.351Z,15.00
2019-03-09T11:13:16.353Z,15.00
2019-03-09T11:15:45.192Z,15.00
2019-03-09T11:18:14.136Z,15.10
2019-03-09T11:20:43.017Z,15.20
2019-03-09T11:23:11.849Z,15.20
2019-03-09T11:25:40.703Z,15.10
2019-03-09T11:28:11.587Z,15.10
2019-03-09T11:30:40.520Z,15.00
2019-03-09T11:33:09.356Z,15.00
2019-03-09T11:35:38.248Z,15.10
2019-03-09T11:38:07.091Z,15.10
2019-03-09T11:40:35.920Z,14.90
2019-03-09T11:43:04.895Z,15.00
2019-03-09T11:45:33.743Z,15.00
2019-03-09T11:48:02.584Z,14.90
2019-03-09T11:50:31.457Z,15.00
2019-03-09T11:53:00.292Z,15.10
2019-03-09T11:55:29.131Z,15.20
2019-03-09T11:57:58.028Z,15.30
2019-03-09T12:00:30.953Z,15.20
2019-03-09T12:02:59.820Z,15.10
2019-03-09T12:05:28.676Z,15.10
2019-03-09T12:07:57.534Z,15.20
2019-03-09T12:10:26.376Z,15.40
2019-03-09T12:12:55.253Z,15.70
2019-03-09T12:15:24.169Z,15.80
2019-03-09T12:17:53.040Z,15.90
2019-03-09T12:20:23.497Z,16.00
2019-03-09T12:22:52.335Z,15.90
2019-03-09T12:25:21.272Z,15.70
2019-03-09T12:27:50.149Z,15.60
2019-03-09T12:30:19.991Z,15.40
2019-03-09T12:32:49.027Z,15.10
2019-03-09T12:35:17.923Z,15.20
2019-03-09T12:37:46.865Z,15.20
2019-03-09T12:40:19.306Z,15.30
2019-03-09T12:42:48.275Z,15.20
2019-03-09T12:45:17.549Z,15.20
2019-03-09T12:47:46.968Z,15.20
2019-03-09T12:50:22.400Z,15.30
2019-03-09T12:52:51.380Z,15.30
2019-03-09T12:55:20.212Z,15.20
2019-03-09T12:57:49.095Z,15.30
2019-03-09T13:00:21.804Z,15.20
2019-03-09T13:02:50.711Z,15.30
2019-03-09T13:05:19.979Z,15.40
2019-03-09T13:07:48.825Z,15.50
2019-03-09T13:10:18.156Z,15.50
2019-03-09T13:12:47.287Z,15.60
2019-03-09T13:15:16.820Z,15.60
2019-03-09T13:17:45.979Z,15.60
2019-03-09T13:20:18.098Z,15.60
2019-03-09T13:22:47.401Z,15.60
2019-03-09T13:25:16.311Z,15.60
2019-03-09T13:27:45.190Z,15.70
2019-03-09T13:30:19.288Z,15.60
2019-03-09T13:32:48.225Z,15.50
2019-03-09T13:35:17.100Z,15.40
2019-03-09T13:37:45.938Z,15.30
2019-03-09T13:40:16.289Z,15.30
2019-03-09T13:42:45.163Z,15.40
2019-03-09T13:45:16.936Z,15.40
2019-03-09T13:47:45.765Z,15.50
2019-03-09T13:50:15.236Z,15.60
2019-03-09T13:52:44.176Z,15.70
2019-03-09T13:55:13.815Z,15.70
2019-03-09T13:57:42.791Z,15.60
2019-03-09T14:00:14.562Z,15.50
2019-03-09T14:02:43.862Z,15.50
2019-03-09T14:05:12.721Z,15.40
2019-03-09T14:07:41.728Z,15.40
2019-03-09T14:10:12.961Z,15.20
2019-03-09T14:12:41.851Z,15.20
2019-03-09T14:15:14.882Z,15.20
2019-03-09T14:17:43.722Z,15.10
2019-03-09T14:20:14.463Z,15.10
2019-03-09T14:22:43.302Z,15.10
2019-03-09T14:25:18.149Z,15.00
2019-03-09T14:27:47.022Z,15.00
2019-03-09T14:30:17.824Z,15.00
2019-03-09T14:32:46.663Z,15.10
2019-03-09T14:35:15.656Z,15.00
2019-03-09T14:37:44.496Z,15.00
2019-03-09T14:40:17.501Z,15.00
2019-03-09T14:42:46.394Z,15.00
2019-03-09T14:45:17.038Z,14.90
2019-03-09T14:47:45.869Z,14.80
2019-03-09T14:50:15.727Z,14.80
2019-03-09T14:52:44.644Z,14.60
2019-03-09T14:55:13.972Z,14.40
2019-03-09T14:57:42.887Z,14.30
2019-03-09T15:00:20.130Z,14.20
2019-03-09T15:02:49.027Z,14.00
2019-03-09T15:05:17.897Z,13.90
2019-03-09T15:07:46.741Z,13.80
2019-03-09T15:10:16.116Z,13.80
2019-03-09T15:12:44.952Z,13.80
2019-03-09T15:15:18.205Z,13.70
2019-03-09T15:17:47.097Z,13.70
2019-03-09T15:20:17.728Z,13.70
2019-03-09T15:22:46.567Z,13.60
2019-03-09T15:25:17.516Z,13.60
2019-03-09T15:27:46.363Z,13.50
2019-03-09T15:30:17.761Z,13.50
2019-03-09T15:32:46.642Z,13.40
2019-03-09T15:35:16.686Z,13.40
2019-03-09T15:37:45.622Z,13.30
2019-03-09T15:40:18.746Z,13.20
2019-03-09T15:42:47.582Z,13.20
2019-03-09T15:45:17.316Z,13.20
2019-03-09T15:47:46.295Z,13.20
2019-03-09T15:50:19.749Z,13.20
2019-03-09T15:52:48.701Z,13.10
2019-03-09T15:55:17.667Z,13.10
2019-03-09T15:57:46.620Z,13.10
2019-03-09T16:00:24.819Z,13.10
2019-03-09T16:02:53.860Z,13.20
2019-03-09T16:05:22.698Z,13.20
2019-03-09T16:07:51.680Z,13.20
2019-03-09T16:10:21.627Z,13.20
2019-03-09T16:12:50.452Z,13.20
2019-03-09T16:15:19.432Z,13.20
2019-03-09T16:17:48.271Z,13.20
2019-03-09T16:20:27.918Z,13.20
2019-03-09T16:22:56.751Z,13.10
2019-03-09T16:25:25.640Z,13.10
2019-03-09T16:27:54.471Z,13.00
2019-03-09T16:30:23.920Z,13.00
2019-03-09T16:32:52.813Z,13.00
2019-03-09T16:35:21.656Z,13.00
2019-03-09T16:37:51.597Z,12.90
2019-03-09T16:40:25.708Z,12.90
2019-03-09T16:42:54.548Z,12.90
2019-03-09T16:45:23.375Z,12.80
2019-03-09T16:47:52.252Z,12.80
2019-03-09T16:50:21.084Z,12.80
2019-03-09T16:52:49.921Z,12.90
2019-03-09T16:55:18.800Z,12.90
2019-03-09T16:57:47.635Z,12.90
2019-03-09T17:00:19.413Z,12.90
2019-03-09T17:02:48.289Z,13.00
2019-03-09T17:05:17.223Z,13.20
2019-03-09T17:07:46.066Z,13.30
2019-03-09T17:10:18.552Z,13.30
2019-03-09T17:12:46.419Z,13.20
2019-03-09T17:15:20.568Z,13.10
2019-03-09T17:17:49.399Z,13.00
2019-03-09T17:20:18.747Z,12.90
2019-03-09T17:22:47.647Z,12.80
2019-03-09T17:25:16.583Z,12.70
2019-03-09T17:27:45.429Z,12.60
2019-03-09T17:30:20.922Z,12.50
2019-03-09T17:32:49.765Z,12.40
2019-03-09T17:35:18.780Z,12.30
2019-03-09T17:37:47.705Z,12.30
2019-03-09T17:40:18.484Z,12.30
2019-03-09T17:42:47.427Z,12.30
2019-03-09T17:45:20.950Z,12.40
2019-03-09T17:47:49.825Z,12.40
2019-03-09T17:50:18.666Z,12.40
2019-03-09T17:52:47.503Z,12.30
2019-03-09T17:55:16.474Z,12.30
2019-03-09T17:57:45.760Z,12.20
2019-03-09T18:00:23.134Z,12.10
2019-03-09T18:02:52.062Z,12.00
2019-03-09T18:05:21.016Z,11.80
2019-03-09T18:07:49.892Z,11.70
2019-03-09T18:10:39.596Z,11.60
2019-03-09T18:13:08.572Z,11.50
2019-03-09T18:15:37.494Z,11.50
2019-03-09T18:18:06.341Z,11.30
2019-03-09T18:20:35.220Z,11.20
2019-03-09T18:23:04.056Z,11.20
2019-03-09T18:25:32.900Z,11.10
2019-03-09T18:28:01.788Z,11.10
2019-03-09T18:30:30.634Z,11.10
2019-03-09T18:32:59.485Z,11.00
2019-03-09T20:49:19.681Z,11.00
2019-03-09T20:51:48.570Z,11.10
2019-03-09T20:54:17.413Z,11.00
2019-03-09T20:56:46.263Z,10.90
2019-03-09T20:59:15.147Z,10.80
2019-03-09T21:01:43.989Z,10.70
2019-03-09T21:04:12.881Z,10.50
2019-03-09T21:06:41.726Z,10.40
2019-03-09T21:09:10.607Z,10.40
2019-03-09T21:11:39.496Z,10.40
2019-03-09T21:14:08.345Z,10.40
2019-03-09T21:16:37.189Z,10.40
2019-03-09T21:19:06.072Z,10.40
2019-03-09T21:46:19.883Z,10.50
2019-03-09T21:48:50.550Z,11.20
2019-03-09T21:51:19.246Z,11.20
2019-03-09T21:53:48.225Z,11.30
2019-03-09T21:56:17.328Z,11.30
2019-03-09T21:58:46.313Z,11.30
2019-03-09T22:01:15.359Z,11.40
2019-03-09T22:03:44.328Z,11.50
2019-03-09T22:06:13.184Z,11.60
2019-03-09T22:08:42.157Z,11.60
2019-03-09T22:11:11.134Z,11.60
2019-03-09T22:13:39.984Z,11.70
2019-03-09T22:16:08.860Z,11.80
2019-03-09T22:18:37.907Z,12.00
2019-03-09T22:21:06.892Z,12.00
2019-03-09T22:23:43.764Z,12.00
2019-03-09T22:26:06.381Z,12.00
2019-03-09T22:28:35.225Z,12.00
2019-03-09T22:31:04.108Z,12.00
2019-03-09T22:33:32.990Z,11.90
2019-03-09T22:36:02.034Z,11.90
2019-03-09T22:38:31.228Z,11.90
2019-03-09T22:41:00.187Z,12.00
2019-03-09T22:43:29.280Z,11.90
2019-03-09T22:45:58.230Z,11.90
2019-03-09T22:48:27.317Z,11.90
2019-03-09T22:50:56.295Z,12.00
2019-03-09T22:53:25.428Z,12.10
2019-03-09T22:55:54.260Z,12.10
2019-03-09T22:58:23.418Z,12.20
2019-03-09T23:00:52.495Z,12.20
2019-03-09T23:03:21.654Z,12.10
2019-03-09T23:05:50.614Z,12.00
2019-03-09T23:08:19.834Z,12.00
2019-03-09T23:10:48.872Z,12.10
2019-03-09T23:13:18.116Z,12.10
2019-03-09T23:15:47.446Z,12.20
2019-03-09T23:18:16.345Z,12.20
2019-03-09T23:20:45.319Z,12.20
2019-03-09T23:23:14.208Z,12.20
2019-03-09T23:25:43.316Z,12.20
2019-03-09T23:28:12.168Z,12.30
2019-03-09T23:30:41.309Z,12.30
2019-03-09T23:33:10.152Z,12.30
2019-03-09T23:35:39.352Z,12.30
2019-03-09T23:38:08.226Z,12.30
2019-03-09T23:40:37.573Z,12.30
2019-03-09T23:43:06.487Z,12.30
2019-03-09T23:45:35.707Z,12.30
2019-03-09T23:48:04.595Z,12.30
2019-03-09T23:50:34.130Z,12.40
2019-03-09T23:53:03.308Z,12.40
2019-03-09T23:55:32.255Z,12.40
2019-03-09T23:58:01.359Z,12.40
